Time;durP1;ratioP1;P1;durP2;ratioP2;P2;SDS_P1;SDS_P2;PMS_P1;PMS_P2;Temp;Humidity;BMP_temperature;BMP_pressure;BME280_temperature;BME280_humidity;BME280_pressure;Samples;Min_cycle;Max_cycle;Signal;HPM_P1;HPM_P2
2022/01/05 00:07:35;;;;;;;13.23;5.55;;;7.20;99.90;;;;;;5056771;28;20131;-80
2022/01/05 00:10:38;;;;;;;15.35;8.05;;;7.20;99.90;;;;;;5021989;28;20037;-81
2022/01/05 00:13:40;;;;;;;15.20;8.35;;;7.10;99.90;;;;;;5056730;28;20037;-81
2022/01/05 00:16:47;;;;;;;12.45;7.50;;;7.20;99.90;;;;;;5056273;28;20028;-81
2022/01/05 00:19:57;;;;;;;13.93;7.28;;;7.20;99.90;;;;;;5056910;28;20021;-81
2022/01/05 00:23:03;;;;;;;16.30;8.82;;;7.20;99.90;;;;;;5036604;28;20061;-80
2022/01/05 00:25:51;;;;;;;13.57;8.00;;;7.10;99.90;;;;;;5053968;28;20085;-78
2022/01/05 00:28:38;;;;;;;14.48;7.82;;;7.10;99.90;;;;;;5028599;28;20113;-80
2022/01/05 00:31:28;;;;;;;12.80;6.83;;;7.00;99.90;;;;;;5041833;28;20032;-81
2022/01/05 00:37:52;;;;;;;12.32;7.15;;;6.90;99.90;;;;;;5022102;28;20037;-82
2022/01/05 00:40:35;;;;;;;15.00;7.07;;;6.90;99.90;;;;;;5059267;28;20054;-81
2022/01/05 00:43:37;;;;;;;13.60;6.93;;;6.90;99.90;;;;;;5048566;28;20040;-80
2022/01/05 00:46:38;;;;;;;14.18;7.38;;;6.90;99.90;;;;;;5058739;28;20131;-81
2022/01/05 00:49:43;;;;;;;13.20;8.18;;;6.90;99.90;;;;;;5056949;28;20021;-81
2022/01/05 00:52:21;;;;;;;15.90;8.57;;;6.90;99.90;;;;;;5060288;28;20033;-80
2022/01/05 01:04:09;;;;;;;12.30;6.75;;;7.10;99.90;;;;;;5228339;23;20109;-81
2022/01/05 01:06:43;;;;;;;11.13;6.00;;;7.10;99.90;;;;;;5032821;28;20049;-80
2022/01/05 01:09:23;;;;;;;15.05;7.05;;;7.10;99.90;;;;;;5038677;28;20076;-81
2022/01/05 01:15:39;;;;;;;14.35;8.15;;;7.10;99.90;;;;;;5039707;28;20056;-80
2022/01/05 01:18:42;;;;;;;17.15;7.60;;;7.00;99.90;;;;;;5024247;28;20026;-79
2022/01/05 01:21:39;;;;;;;16.70;8.10;;;7.10;99.90;;;;;;5024512;28;20038;-80
2022/01/05 01:24:40;;;;;;;17.08;8.88;;;7.10;99.90;;;;;;5022116;28;20045;-81
2022/01/05 01:27:57;;;;;;;19.10;9.20;;;7.10;99.90;;;;;;5033126;28;20348;-80
2022/01/05 01:31:11;;;;;;;16.75;9.77;;;7.20;99.90;;;;;;5038448;28;20014;-80
2022/01/05 01:34:17;;;;;;;19.48;9.25;;;7.10;99.90;;;;;;5036269;28;20026;-80
2022/01/05 01:36:48;;;;;;;17.95;8.90;;;7.20;99.90;;;;;;5030711;28;20065;-81
2022/01/05 01:39:52;;;;;;;25.50;14.82;;;7.10;99.90;;;;;;5037959;28;20013;-80
2022/01/05 01:43:07;;;;;;;25.73;14.98;;;7.10;99.90;;;;;;5015764;28;20040;-81
2022/01/05 01:46:09;;;;;;;32.63;15.30;;;7.10;99.90;;;;;;5018656;28;20038;-81
2022/01/05 01:49:24;;;;;;;24.40;11.90;;;7.10;99.90;;;;;;5028294;28;20014;-82
2022/01/05 01:52:18;;;;;;;15.57;8.82;;;7.10;99.90;;;;;;5013087;28;20069;-81
2022/01/05 02:02:40;;;;;;;10.20;6.30;;;7.30;99.90;;;;;;5978973;23;20080;-79
2022/01/05 02:05:17;;;;;;;11.20;6.45;;;7.30;99.90;;;;;;5035011;28;20010;-80
2022/01/05 02:07:46;;;;;;;11.52;7.25;;;7.20;99.90;;;;;;5002741;28;20025;-79
2022/01/05 02:10:20;;;;;;;13.48;7.25;;;7.20;99.90;;;;;;5036384;28;20037;-79
2022/01/05 02:12:47;;;;;;;14.15;7.20;;;7.30;99.90;;;;;;4999237;28;20070;-79
2022/01/05 02:15:21;;;;;;;13.38;7.22;;;7.10;99.90;;;;;;5014527;28;20034;-79
2022/01/05 02:20:27;;;;;;;11.13;6.22;;;7.00;99.90;;;;;;5020489;28;20038;-79
2022/01/05 02:22:56;;;;;;;14.90;6.97;;;6.80;99.90;;;;;;4999898;28;20014;-78
2022/01/05 02:26:19;;;;;;;15.35;7.93;;;6.90;99.90;;;;;;5035329;28;20037;-79
2022/01/05 02:29:16;;;;;;;19.42;8.55;;;6.90;99.90;;;;;;5016350;28;20006;-79
2022/01/05 02:32:06;;;;;;;36.65;14.40;;;6.90;99.90;;;;;;5033734;28;20101;-79
2022/01/05 02:34:54;;;;;;;;;;;6.90;99.90;;;;;;5032897;28;20014;-80
2022/01/05 02:37:25;;;;;;;24.92;10.98;;;6.90;99.90;;;;;;5017623;28;19981;-78
2022/01/05 02:40:01;;;;;;;22.98;10.50;;;6.90;99.90;;;;;;5034696;28;20045;-79
2022/01/05 02:42:47;;;;;;;19.85;8.77;;;6.90;99.90;;;;;;5035594;28;20041;-79
2022/01/05 02:45:17;;;;;;;18.77;10.05;;;6.90;99.90;;;;;;5018788;28;20041;-79
2022/01/05 02:48:01;;;;;;;21.70;10.60;;;7.00;99.90;;;;;;5009214;28;20018;-79
2022/01/05 02:50:52;;;;;;;36.10;15.48;;;7.00;99.90;;;;;;5035788;28;20017;-81
2022/01/05 02:53:29;;;;;;;33.55;14.10;;;7.00;99.90;;;;;;5018958;28;20049;-79
2022/01/05 02:56:21;;;;;;;21.67;10.70;;;6.90;99.90;;;;;;5019197;28;20034;-80
2022/01/05 02:59:13;;;;;;;26.40;10.48;;;7.00;99.90;;;;;;4986588;28;20045;-80
2022/01/05 03:02:03;;;;;;;23.17;11.20;;;7.10;99.90;;;;;;5029546;28;20072;-80
2022/01/05 03:04:36;;;;;;;21.45;10.27;;;7.10;99.90;;;;;;5013799;28;20061;-79
2022/01/05 03:07:05;;;;;;;26.17;11.15;;;7.10;99.90;;;;;;5015529;28;20038;-79
2022/01/05 03:09:32;;;;;;;24.70;12.18;;;7.00;99.90;;;;;;4998254;28;20061;-79
2022/01/05 03:12:06;;;;;;;27.98;12.30;;;7.10;99.90;;;;;;5015070;28;20026;-79
2022/01/05 03:14:32;;;;;;;23.42;10.20;;;7.00;99.90;;;;;;5015042;28;20030;-79
2022/01/05 03:16:58;;;;;;;;;;;7.00;99.90;;;;;;4994578;28;20036;-80
2022/01/05 03:19:24;;;;;;;13.25;7.72;;;6.90;99.90;;;;;;5012380;28;19913;-78
2022/01/05 03:21:50;;;;;;;;;;;6.90;99.90;;;;;;4995537;28;20030;-80
2022/01/05 03:24:16;;;;;;;15.93;9.38;;;6.90;99.90;;;;;;5012187;28;19909;-80
2022/01/05 03:27:26;;;;;;;22.45;10.68;;;6.90;99.90;;;;;;5015941;28;20014;-81
2022/01/05 03:30:42;;;;;;;19.55;9.15;;;6.90;99.90;;;;;;4995721;28;20045;-84
2022/01/05 03:33:31;;;;;;;14.00;7.13;;;6.80;99.90;;;;;;4975255;28;20043;-80
2022/01/05 03:37:04;;;;;;;9.80;5.90;;;6.80;99.90;;;;;;4962725;28;20076;-80
2022/01/05 03:40:22;;;;;;;8.75;5.40;;;6.90;99.90;;;;;;4972367;28;20100;-81
2022/01/05 03:43:02;;;;;;;9.80;5.38;;;6.90;99.90;;;;;;4995132;28;20110;-81
2022/01/05 03:45:45;;;;;;;11.93;4.88;;;7.00;99.90;;;;;;4980017;28;20027;-81
2022/01/05 03:48:40;;;;;;;10.90;5.68;;;7.10;99.90;;;;;;4970257;28;20034;-80
2022/01/05 03:51:27;;;;;;;9.75;5.15;;;7.20;99.90;;;;;;4974354;28;20042;-80
2022/01/05 03:57:19;;;;;;;10.48;6.38;;;7.20;99.90;;;;;;4978429;28;20090;-80
2022/01/05 03:59:46;;;;;;;10.77;5.35;;;7.20;99.90;;;;;;4995527;28;20037;-80
2022/01/05 04:02:12;;;;;;;20.15;8.65;;;7.20;99.90;;;;;;4998425;28;20041;-79
2022/01/05 04:04:37;;;;;;;;;;;7.20;99.90;;;;;;5017472;28;20050;-80
2022/01/05 04:07:04;;;;;;;12.85;6.72;;;7.20;99.90;;;;;;5018553;28;19937;-80
2022/01/05 04:09:30;;;;;;;12.82;6.82;;;7.20;99.90;;;;;;5002675;28;20014;-81
2022/01/05 04:11:55;;;;;;;;;;;7.10;99.90;;;;;;5018718;28;20557;-79
2022/01/05 04:14:21;;;;;;;11.70;6.97;;;7.10;99.90;;;;;;5001837;28;19890;-80
2022/01/05 04:16:47;;;;;;;;;;;7.10;99.90;;;;;;5020344;28;20019;-80
2022/01/05 04:19:13;;;;;;;21.50;11.98;;;7.00;99.90;;;;;;5018298;28;19901;-81
2022/01/05 04:21:39;;;;;;;28.80;16.70;;;6.90;99.90;;;;;;5019112;28;20034;-80
2022/01/05 04:24:05;;;;;;;;;;;6.90;99.90;;;;;;5019570;28;20023;-80
2022/01/05 04:26:31;;;;;;;15.23;10.38;;;7.00;99.90;;;;;;5017918;28;19922;-79
2022/01/05 04:28:56;;;;;;;8.48;4.78;;;6.90;99.90;;;;;;5018647;28;20027;-81
2022/01/05 04:31:22;;;;;;;8.05;4.85;;;7.00;99.90;;;;;;5018670;28;20035;-79
2022/01/05 04:33:48;;;;;;;;;;;7.00;99.90;;;;;;5003332;28;20037;-80
2022/01/05 04:36:14;;;;;;;7.72;4.70;;;7.10;99.90;;;;;;5019213;28;19932;-79
2022/01/05 04:38:40;;;;;;;;;;;7.10;99.90;;;;;;5002566;28;20074;-80
2022/01/05 04:41:06;;;;;;;11.93;4.90;;;7.10;99.90;;;;;;5003152;28;19916;-79
2022/01/05 04:43:31;;;;;;;;;;;7.10;99.90;;;;;;5002487;28;20030;-79
2022/01/05 04:45:57;;;;;;;9.23;4.47;;;7.10;99.90;;;;;;5018091;28;19916;-79
2022/01/05 04:48:23;;;;;;;;;;;7.10;99.90;;;;;;5002929;28;20038;-80
2022/01/05 04:50:50;;;;;;;9.52;4.97;;;7.10;99.90;;;;;;5015918;28;19897;-78
2022/01/05 04:53:16;;;;;;;9.48;4.63;;;7.10;99.90;;;;;;5015183;28;20054;-80
2022/01/05 04:56:05;;;;;;;;;;;7.10;99.90;;;;;;5018585;28;20238;-80
2022/01/05 04:59:36;;;;;;;8.73;4.85;;;7.10;99.90;;;;;;5019331;28;19914;-82
2022/01/05 05:02:05;;;;;;;12.82;4.70;;;7.10;99.90;;;;;;4995529;28;20033;-81
2022/01/05 05:05:39;;;;;;;14.13;7.93;;;7.10;99.90;;;;;;5018626;28;20034;-81
2022/01/05 05:08:43;;;;;;;16.92;7.35;;;7.20;99.90;;;;;;5019116;28;20026;-81
2022/01/05 05:11:21;;;;;;;12.90;6.95;;;7.20;99.90;;;;;;5022014;28;20053;-80
2022/01/05 05:14:30;;;;;;;14.25;8.02;;;7.20;99.90;;;;;;5020687;28;20030;-81
2022/01/05 05:17:17;;;;;;;11.95;5.93;;;7.20;99.90;;;;;;5021811;28;20343;-81
2022/01/05 05:23:07;;;;;;;11.20;5.75;;;7.30;99.90;;;;;;5010135;28;20101;-80
2022/01/05 05:25:35;;;;;;;11.90;6.10;;;7.40;99.90;;;;;;5021223;28;20026;-79
2022/01/05 05:28:01;;;;;;;9.18;5.65;;;7.40;99.90;;;;;;5003084;28;20024;-79
2022/01/05 05:30:26;;;;;;;;;;;7.40;99.90;;;;;;5019546;28;20057;-80
2022/01/05 05:32:55;;;;;;;9.52;5.53;;;7.30;99.90;;;;;;5018060;28;19905;-80
2022/01/05 05:35:26;;;;;;;10.10;6.32;;;7.30;99.90;;;;;;5036448;28;20002;-80
2022/01/05 05:37:52;;;;;;;12.07;6.25;;;7.30;99.90;;;;;;5018967;28;20034;-80
2022/01/05 05:40:17;;;;;;;;;;;7.30;99.90;;;;;;5018291;28;20515;-80
2022/01/05 05:42:43;;;;;;;8.60;4.80;;;7.30;99.90;;;;;;5018529;28;19912;-81
2022/01/05 05:45:10;;;;;;;;;;;7.40;99.90;;;;;;5018836;28;20014;-80
2022/01/05 05:47:59;;;;;;;7.15;4.38;;;7.30;99.90;;;;;;5040478;28;19911;-83
2022/01/05 05:50:50;;;;;;;9.90;5.68;;;7.30;99.90;;;;;;5022531;28;20041;-79
2022/01/05 05:58:31;;;;;;;21.33;13.10;;;7.30;99.90;;;;;;5779534;23;20447;-79
2022/01/05 06:01:09;;;;;;;11.10;6.57;;;7.40;99.90;;;;;;5000087;28;20054;-81
2022/01/05 06:03:41;;;;;;;13.20;8.75;;;7.40;99.90;;;;;;5001083;28;20130;-80
2022/01/05 06:06:06;;;;;;;13.88;8.30;;;7.60;99.90;;;;;;4995612;28;20062;-79
2022/01/05 06:08:32;;;;;;;;;;;7.50;99.90;;;;;;4993729;28;20042;-79
2022/01/05 06:11:07;;;;;;;14.25;8.02;;;7.50;99.90;;;;;;5005233;28;19905;-80
2022/01/05 06:13:35;;;;;;;14.32;8.95;;;7.50;99.90;;;;;;5012309;28;20026;-82
2022/01/05 06:16:17;;;;;;;11.43;6.75;;;7.50;99.90;;;;;;5000732;28;20636;-79
2022/01/05 06:18:44;;;;;;;11.48;6.85;;;7.50;99.90;;;;;;5013497;28;20026;-79
2022/01/05 06:21:12;;;;;;;10.05;5.65;;;7.50;99.90;;;;;;4995792;28;20034;-79
2022/01/05 06:23:39;;;;;;;13.80;6.80;;;7.50;99.90;;;;;;4994643;28;20026;-80
2022/01/05 06:26:07;;;;;;;18.33;11.20;;;7.50;99.90;;;;;;4980767;28;20034;-80
2022/01/05 06:28:36;;;;;;;20.60;10.75;;;7.60;99.90;;;;;;5011113;28;20034;-79
2022/01/05 06:31:03;;;;;;;23.50;12.68;;;7.50;99.90;;;;;;4995877;28;20038;-79
2022/01/05 06:33:31;;;;;;;21.58;10.48;;;7.50;99.90;;;;;;5013171;28;20022;-80
2022/01/05 06:35:59;;;;;;;17.05;8.63;;;7.60;99.90;;;;;;5000066;28;20208;-79
2022/01/05 06:38:28;;;;;;;15.48;8.75;;;7.60;99.90;;;;;;5000054;28;20021;-81
2022/01/05 06:40:56;;;;;;;14.10;8.18;;;7.60;99.90;;;;;;5001258;28;20006;-80
2022/01/05 06:43:22;;;;;;;17.48;8.90;;;7.50;99.90;;;;;;5000363;28;20015;-80
2022/01/05 06:45:50;;;;;;;;;;;7.60;99.90;;;;;;5000571;28;20018;-81
2022/01/05 06:48:53;;;;;;;12.20;7.55;;;7.60;99.90;;;;;;5000310;28;19913;-80
2022/01/05 06:51:32;;;;;;;13.23;8.25;;;7.60;99.90;;;;;;5015369;28;20038;-81
2022/01/05 06:54:54;;;;;;;20.50;9.50;;;7.70;99.90;;;;;;4981083;28;20031;-82
2022/01/05 06:58:03;;;;;;;13.75;7.68;;;7.80;99.90;;;;;;4995186;28;20031;-80
2022/01/05 07:00:42;;;;;;;19.23;9.60;;;7.70;99.90;;;;;;4975917;28;20512;-80
2022/01/05 07:03:31;;;;;;;14.40;8.90;;;7.80;99.90;;;;;;4995651;28;20026;-80
2022/01/05 07:06:36;;;;;;;24.75;12.98;;;7.80;99.90;;;;;;4978889;28;20351;-81
2022/01/05 07:09:27;;;;;;;80.65;30.33;;;7.80;99.90;;;;;;4915203;28;20031;-80
2022/01/05 07:11:57;;;;;;;56.55;23.60;;;7.80;99.90;;;;;;4981512;28;20050;-80
2022/01/05 07:15:25;;;;;;;107.90;40.80;;;7.90;99.90;;;;;;4980480;28;20038;-80
2022/01/05 07:18:00;;;;;;;142.30;50.83;;;7.90;99.90;;;;;;4984670;28;20030;-77
2022/01/05 07:20:30;;;;;;;;;;;8.00;99.90;;;;;;4997881;28;20035;-80
2022/01/05 07:26:27;;;;;;;88.05;36.78;;;8.00;99.90;;;;;;4983961;28;20110;-80
2022/01/05 07:29:10;;;;;;;76.38;35.88;;;8.00;99.90;;;;;;4986514;28;20094;-81
2022/01/05 07:32:19;;;;;;;68.25;31.63;;;8.10;99.90;;;;;;4943244;29;20047;-81
2022/01/05 07:35:50;;;;;;;60.00;32.25;;;8.10;99.90;;;;;;4954947;28;20020;-80
2022/01/05 07:39:05;;;;;;;88.20;44.65;;;8.10;99.90;;;;;;4926651;29;20060;-81
2022/01/05 07:45:55;;;;;;;47.95;25.00;;;8.10;99.90;;;;;;4883862;29;20032;-81
2022/01/05 07:49:09;;;;;;;46.97;24.92;;;8.10;99.90;;;;;;4884272;29;20022;-81
2022/01/05 08:59:28;;;;;;;9.32;4.47;;;9.00;99.90;;;;;;4960582;29;20066;-81
2022/01/05 09:02:15;;;;;;;6.32;4.20;;;9.00;99.90;;;;;;4953949;29;20047;-80
2022/01/05 09:08:49;;;;;;;6.97;3.75;;;8.90;99.90;;;;;;4962027;29;20053;-80
2022/01/05 09:15:34;;;;;;;7.35;3.88;;;8.90;99.90;;;;;;4961017;29;20066;-82
2022/01/05 09:18:25;;;;;;;6.72;3.60;;;8.90;99.90;;;;;;4934502;29;20051;-79
2022/01/05 09:21:40;;;;;;;6.30;3.08;;;9.00;99.90;;;;;;4960651;29;20027;-80
2022/01/05 09:24:53;;;;;;;5.90;3.20;;;9.00;99.90;;;;;;4960716;29;20047;-80
2022/01/05 09:31:26;;;;;;;7.53;4.20;;;9.20;99.90;;;;;;4923521;29;20037;-80
2022/01/05 10:10:15;;;;;;;6.87;3.83;;;9.90;99.90;;;;;;6111360;23;20026;31
2022/01/05 10:16:50;;;;;;;15.48;7.57;;;9.90;99.90;;;;;;4942435;29;20036;-80
2022/01/05 10:34:56;;;;;;;6.75;4.07;;;9.60;99.90;;;;;;4723715;30;20051;-80
2022/01/05 11:19:55;;;;;;;12.60;6.88;;;10.00;99.90;;;;;;4903556;29;20059;-81
2022/01/05 11:44:56;;;;;;;8.73;5.00;;;10.40;99.90;;;;;;4829528;29;20030;-80
2022/01/05 13:00:18;;;;;;;1.25;0.40;;;9.30;99.90;;;;;;5123452;23;20080;-80
2022/01/05 13:02:45;;;;;;;2.50;0.63;;;9.30;99.90;;;;;;4985087;28;20041;-80
2022/01/05 13:08:52;;;;;;;2.28;0.52;;;9.20;99.90;;;;;;4988390;28;20099;-80
2022/01/05 13:11:58;;;;;;;0.80;0.40;;;9.20;99.90;;;;;;4979764;28;20039;-80
2022/01/05 13:15:13;;;;;;;1.33;0.60;;;9.20;99.90;;;;;;4983540;28;20029;-81
2022/01/05 13:18:11;;;;;;;2.00;0.47;;;9.20;99.90;;;;;;5000565;28;20034;-79
2022/01/05 13:20:40;;;;;;;1.27;0.70;;;9.10;99.90;;;;;;5000094;28;20031;-81
2022/01/05 13:23:13;;;;;;;1.33;0.50;;;9.10;99.90;;;;;;4982676;28;20015;-80
2022/01/05 13:26:19;;;;;;;1.60;0.60;;;9.00;99.90;;;;;;5000291;28;20037;-80
2022/01/05 13:29:32;;;;;;;1.20;0.50;;;9.00;99.90;;;;;;4999823;28;20039;-81
2022/01/05 13:32:52;;;;;;;1.73;0.80;;;8.90;99.90;;;;;;4918606;29;20044;-82
2022/01/05 13:35:37;;;;;;;1.35;0.50;;;8.90;99.90;;;;;;4979132;28;20039;-81
2022/01/05 13:38:42;;;;;;;1.98;0.85;;;8.80;99.90;;;;;;4963340;29;20082;-81
2022/01/05 13:41:31;;;;;;;2.72;0.85;;;8.70;99.90;;;;;;4977723;28;20047;-79
2022/01/05 13:44:00;;;;;;;1.73;0.80;;;8.70;99.90;;;;;;4960686;28;20031;-81
2022/01/05 13:46:32;;;;;;;2.40;0.77;;;8.60;99.90;;;;;;4978549;28;20103;-81
2022/01/05 13:49:15;;;;;;;3.08;1.13;;;8.60;99.90;;;;;;4979075;28;20043;-81
2022/01/05 13:51:41;;;;;;;3.17;1.30;;;8.50;99.90;;;;;;4960582;28;20019;-81
2022/01/05 13:54:14;;;;;;;;;;;8.50;99.90;;;;;;4979756;28;20103;-80
2022/01/05 13:56:41;;;;;;;10.68;6.22;;;8.40;99.90;;;;;;4979319;28;19958;-81
2022/01/05 13:59:12;;;;;;;1.73;1.00;;;8.40;99.90;;;;;;4961946;29;20073;-81
2022/01/05 14:01:44;;;;;;;2.67;1.20;;;8.30;99.90;;;;;;4978565;28;20054;-81
2022/01/05 14:04:12;;;;;;;2.42;1.38;;;8.30;99.90;;;;;;4977993;29;20018;-79
2022/01/05 14:06:41;;;;;;;2.78;0.57;;;8.20;99.90;;;;;;4992405;28;20039;-81
2022/01/05 14:09:06;;;;;;;1.35;0.70;;;8.20;99.90;;;;;;4978923;28;20070;-80
2022/01/05 14:11:35;;;;;;;;;;;8.10;99.90;;;;;;4982268;28;20090;-81
2022/01/05 14:14:08;;;;;;;1.27;0.65;;;8.10;99.90;;;;;;4982878;28;19901;-80
2022/01/05 14:16:50;;;;;;;2.72;0.70;;;8.10;99.90;;;;;;5000043;28;20042;-80
2022/01/05 14:19:28;;;;;;;1.73;0.68;;;8.10;99.90;;;;;;4981175;28;20067;-81
2022/01/05 14:22:08;;;;;;;1.80;1.33;;;8.00;99.90;;;;;;4981197;28;20033;-79
2022/01/05 14:24:48;;;;;;;0.90;0.50;;;8.00;99.90;;;;;;4995070;28;20045;-79
2022/01/05 14:27:21;;;;;;;1.95;0.70;;;7.90;99.90;;;;;;4961920;28;20118;-80
2022/01/05 14:30:12;;;;;;;2.97;0.90;;;7.90;99.90;;;;;;4997920;28;20061;-80
2022/01/05 14:32:43;;;;;;;2.25;1.00;;;7.80;99.90;;;;;;4981100;28;20075;-79
2022/01/05 14:35:28;;;;;;;7.70;4.85;;;7.80;99.90;;;;;;4982779;28;20034;-80
2022/01/05 14:38:04;;;;;;;4.07;1.90;;;7.80;99.90;;;;;;4965512;28;20098;-79
2022/01/05 14:40:38;;;;;;;1.30;0.80;;;7.80;99.90;;;;;;4981297;28;20019;-81
2022/01/05 14:43:18;;;;;;;3.67;1.17;;;7.70;99.90;;;;;;4997761;28;20029;-80
2022/01/05 14:46:06;;;;;;;2.33;1.02;;;7.70;99.90;;;;;;4996965;28;20073;-81
2022/01/05 14:49:06;;;;;;;3.90;1.48;;;7.60;99.90;;;;;;4987306;28;20034;-81
2022/01/05 14:52:14;;;;;;;2.05;1.17;;;7.60;99.90;;;;;;4978911;28;20026;-81
2022/01/05 14:55:19;;;;;;;2.17;1.15;;;7.60;99.90;;;;;;4956409;28;20047;-80
2022/01/05 14:58:14;;;;;;;2.38;1.20;;;7.50;99.90;;;;;;4996269;28;20066;-81
2022/01/05 15:00:49;;;;;;;4.10;2.03;;;7.50;99.90;;;;;;4994728;28;20035;-82
2022/01/05 15:03:22;;;;;;;4.78;2.17;;;7.50;99.90;;;;;;4996938;28;20090;-80
2022/01/05 15:05:50;;;;;;;5.63;2.80;;;7.40;99.90;;;;;;4997750;28;20023;-81
2022/01/05 15:08:19;;;;;;;4.82;2.38;;;7.40;99.90;;;;;;4980779;28;20019;-78
2022/01/05 15:10:52;;;;;;;4.15;1.98;;;7.30;99.90;;;;;;4979072;28;20026;-79
2022/01/05 15:13:33;;;;;;;4.68;1.88;;;7.40;99.90;;;;;;4998066;28;20057;-81
2022/01/05 15:16:12;;;;;;;29.05;13.25;;;7.40;99.90;;;;;;4997262;28;20039;-80
2022/01/05 15:19:25;;;;;;;38.25;18.55;;;7.40;99.90;;;;;;4962001;28;20041;-81
2022/01/05 15:22:12;;;;;;;17.30;6.40;;;7.20;99.90;;;;;;4984033;28;20036;-81
2022/01/05 15:25:09;;;;;;;8.10;3.65;;;7.30;99.90;;;;;;4997382;28;20078;-82
2022/01/05 15:27:35;;;;;;;6.18;2.92;;;7.20;99.90;;;;;;4979097;28;20067;-81
2022/01/05 15:30:23;;;;;;;;;;;7.20;99.90;;;;;;4980281;28;20051;-80
2022/01/05 15:33:16;;;;;;;9.48;6.35;;;7.20;99.90;;;;;;4989902;28;19989;-81
2022/01/05 15:36:24;;;;;;;7.28;4.47;;;7.20;99.90;;;;;;4996603;28;20023;-80
2022/01/05 15:39:16;;;;;;;4.53;2.40;;;7.20;99.90;;;;;;4966972;28;20031;-81
2022/01/05 15:42:18;;;;;;;4.95;2.88;;;7.10;99.90;;;;;;4995328;28;20111;-81
2022/01/05 15:44:46;;;;;;;3.90;1.92;;;7.10;99.90;;;;;;4997051;28;20027;-80
2022/01/05 15:47:14;;;;;;;3.97;1.55;;;7.00;99.90;;;;;;4964675;28;20030;-81
2022/01/05 15:49:43;;;;;;;6.22;2.25;;;7.00;99.90;;;;;;4980543;28;20050;-80
2022/01/05 15:52:14;;;;;;;5.97;2.13;;;7.00;99.90;;;;;;4980689;28;20098;-81
2022/01/05 15:54:49;;;;;;;4.90;2.03;;;6.90;99.90;;;;;;4965465;28;20115;-80
2022/01/05 16:03:00;;;;;;;5.55;2.78;;;6.90;99.90;;;;;;4987547;28;20046;-82
2022/01/05 16:05:28;;;;;;;6.90;2.80;;;6.90;99.90;;;;;;5000575;28;20019;-81
2022/01/05 16:07:57;;;;;;;6.43;2.17;;;6.90;99.90;;;;;;4968001;28;20094;-81
2022/01/05 16:10:27;;;;;;;3.95;1.90;;;6.90;99.90;;;;;;4984263;28;20022;-81
2022/01/05 16:13:18;;;;;;;4.00;1.88;;;6.90;99.90;;;;;;5000228;28;20035;-80
2022/01/05 16:15:48;;;;;;;3.65;1.75;;;6.80;99.90;;;;;;4984508;28;20054;-81
2022/01/05 16:18:21;;;;;;;2.78;1.00;;;7.00;99.90;;;;;;4968242;28;20027;-80
2022/01/05 16:21:14;;;;;;;3.15;1.40;;;6.90;99.90;;;;;;4953100;28;20038;-81
2022/01/05 16:24:07;;;;;;;1.92;1.13;;;7.00;99.90;;;;;;4984514;28;20030;-80
2022/01/05 16:26:41;;;;;;;2.55;1.10;;;7.00;99.90;;;;;;4992882;28;20038;-80
2022/01/05 16:29:09;;;;;;;3.40;1.00;;;7.00;99.90;;;;;;4968268;28;20023;-81
2022/01/05 16:31:39;;;;;;;2.13;0.93;;;7.00;99.90;;;;;;4983653;28;20023;-79
2022/01/05 16:34:05;;;;;;;1.45;0.80;;;7.00;99.90;;;;;;4980653;28;20084;-79
2022/01/05 16:36:31;;;;;;;;;;;6.80;99.90;;;;;;4983901;28;20038;-81
2022/01/05 16:38:59;;;;;;;2.13;0.90;;;7.00;99.90;;;;;;4999406;28;19901;-80
2022/01/05 16:44:12;;;;;;;1.52;0.70;;;6.90;99.90;;;;;;5014279;23;20059;-81
2022/01/05 16:46:59;;;;;;;2.28;0.80;;;6.90;99.90;;;;;;4983168;28;20061;-81
2022/01/05 16:49:40;;;;;;;5.05;1.00;;;6.90;99.90;;;;;;4982466;28;20062;-80
2022/01/05 16:52:20;;;;;;;5.68;1.90;;;6.90;99.90;;;;;;4960218;28;20048;-81
2022/01/05 16:55:03;;;;;;;6.05;1.67;;;6.90;99.90;;;;;;4959956;29;20047;-81
2022/01/05 17:01:05;;;;;;;14.82;6.97;;;6.80;99.90;;;;;;4946801;29;20056;-81
2022/01/05 17:04:03;;;;;;;19.58;8.88;;;6.90;99.90;;;;;;4960215;29;20011;-81
2022/01/05 17:07:13;;;;;;;12.30;5.47;;;6.90;99.90;;;;;;4957044;29;20048;-81
2022/01/05 17:10:08;;;;;;;10.57;5.43;;;6.80;99.90;;;;;;4959361;28;20087;-81
2022/01/05 17:12:56;;;;;;;20.50;11.25;;;6.80;99.90;;;;;;4959867;29;20094;-79
2022/01/05 17:16:04;;;;;;;16.00;9.20;;;6.80;99.90;;;;;;4959543;29;20095;-79
2022/01/05 17:18:49;;;;;;;7.60;4.22;;;6.80;99.90;;;;;;4959070;29;20039;-80
2022/01/05 17:21:21;;;;;;;11.50;6.25;;;6.80;99.90;;;;;;4943455;29;20078;-81
2022/01/05 17:24:09;;;;;;;4.68;2.63;;;6.70;99.90;;;;;;4992465;28;20047;-81
2022/01/05 17:26:47;;;;;;;6.47;3.70;;;6.80;99.90;;;;;;4968659;28;20042;-81
2022/01/05 17:29:56;;;;;;;9.52;4.43;;;6.80;99.90;;;;;;4966622;28;20023;-81
2022/01/05 17:32:30;;;;;;;5.95;3.08;;;6.80;99.90;;;;;;4999964;28;20087;-79
2022/01/05 17:35:43;;;;;;;9.95;4.95;;;6.70;99.90;;;;;;4988413;28;20078;-80
2022/01/05 17:41:22;;;;;;;3.20;1.85;;;6.70;99.90;;;;;;4971435;28;20062;-80
2022/01/05 17:44:10;;;;;;;;;;;6.70;99.90;;;;;;4968066;28;20103;-80
2022/01/05 17:47:09;;;;;;;3.15;1.58;;;6.70;99.90;;;;;;4999789;28;19897;-82
2022/01/05 17:49:36;;;;;;;2.95;1.58;;;6.70;99.90;;;;;;4982722;28;20019;-81
2022/01/05 17:52:02;;;;;;;2.25;1.20;;;6.70;99.90;;;;;;4981256;28;20031;-80
2022/01/05 17:54:28;;;;;;;5.72;1.65;;;6.70;99.90;;;;;;4982443;28;20074;-80
2022/01/05 17:56:54;;;;;;;;;;;6.70;99.90;;;;;;4951997;28;20023;-80
2022/01/05 17:59:22;;;;;;;3.25;1.48;;;6.70;99.90;;;;;;4999523;28;19909;-81
2022/01/05 18:01:56;;;;;;;2.08;1.20;;;6.70;99.90;;;;;;4982386;28;20014;-79
2022/01/05 18:04:22;;;;;;;2.25;1.27;;;6.70;99.90;;;;;;4982069;28;20031;-80
2022/01/05 18:06:51;;;;;;;3.00;1.50;;;6.80;99.90;;;;;;4982125;28;20043;-80
2022/01/05 18:09:18;;;;;;;2.45;1.10;;;6.80;99.90;;;;;;4983205;28;20086;-80
2022/01/05 18:11:45;;;;;;;2.80;1.42;;;6.90;99.90;;;;;;4998703;28;20087;-79
2022/01/05 18:14:12;;;;;;;2.33;0.93;;;6.90;99.90;;;;;;4980097;28;20085;-81
2022/01/05 18:16:48;;;;;;;2.20;1.20;;;6.90;99.90;;;;;;4982292;28;20035;-81
2022/01/05 18:19:18;;;;;;;1.98;1.10;;;7.00;99.90;;;;;;4981637;28;20057;-81
2022/01/05 18:21:48;;;;;;;3.28;1.80;;;6.90;99.90;;;;;;4998880;28;20157;-80
2022/01/05 18:24:17;;;;;;;2.78;1.42;;;6.90;99.90;;;;;;4982000;28;20022;-80
2022/01/05 18:26:46;;;;;;;3.70;1.48;;;6.90;99.90;;;;;;4966097;28;20075;-81
2022/01/05 18:29:15;;;;;;;3.03;1.73;;;6.80;99.90;;;;;;4982018;28;20038;-81
2022/01/05 18:31:42;;;;;;;2.45;1.38;;;6.90;99.90;;;;;;4981969;28;20455;-80
2022/01/05 18:34:08;;;;;;;2.13;0.90;;;6.80;99.90;;;;;;4982084;28;20019;-82
2022/01/05 18:36:35;;;;;;;1.77;1.00;;;6.90;99.90;;;;;;4981627;28;20062;-81
2022/01/05 18:39:01;;;;;;;2.22;1.13;;;6.90;99.90;;;;;;4950574;28;20035;-81
2022/01/05 18:41:51;;;;;;;2.20;1.25;;;6.90;99.90;;;;;;4998195;28;20094;-80
2022/01/05 18:44:19;;;;;;;3.60;1.20;;;6.90;99.90;;;;;;4997002;28;20053;-80
2022/01/05 18:46:46;;;;;;;2.63;1.45;;;6.90;99.90;;;;;;4981500;28;20034;-81
2022/01/05 18:49:16;;;;;;;2.65;1.35;;;6.90;99.90;;;;;;4981033;28;20030;-81
2022/01/05 18:51:44;;;;;;;11.00;4.22;;;6.90;99.90;;;;;;4966130;28;20007;-81
2022/01/05 18:54:12;;;;;;;4.20;1.77;;;6.90;99.90;;;;;;4998101;28;20021;-79
2022/01/05 18:57:34;;;;;;;2.72;1.15;;;6.90;99.90;;;;;;4998116;28;20019;-79
2022/01/05 19:00:02;;;;;;;1.92;0.82;;;6.90;99.90;;;;;;4980096;28;20027;-80
2022/01/05 19:02:35;;;;;;;1.42;0.65;;;6.90;99.90;;;;;;4997991;28;20026;-80
2022/01/05 19:05:21;;;;;;;1.50;0.80;;;6.90;99.90;;;;;;4995367;28;20018;-81
2022/01/05 19:08:18;;;;;;;;;;;6.90;99.90;;;;;;4997756;28;20063;-80
2022/01/05 19:11:02;;;;;;;1.77;0.90;;;6.90;99.90;;;;;;4949243;28;19910;-80
2022/01/05 19:13:34;;;;;;;2.97;1.00;;;6.90;99.90;;;;;;4979636;28;20066;-79
2022/01/05 19:16:01;;;;;;;1.15;0.70;;;6.90;99.90;;;;;;4965165;28;20019;-81
2022/01/05 19:18:33;;;;;;;1.83;0.82;;;6.90;99.90;;;;;;4980609;28;20026;-80
2022/01/05 19:21:13;;;;;;;4.13;1.10;;;6.90;99.90;;;;;;4997613;28;20499;-81
2022/01/05 19:24:12;;;;;;;2.67;1.50;;;7.00;99.90;;;;;;4966162;28;20031;-81
2022/01/05 19:26:51;;;;;;;2.30;1.17;;;6.90;99.90;;;;;;4981014;28;20110;-80
2022/01/05 19:30:01;;;;;;;2.05;0.95;;;6.80;99.90;;;;;;4993040;28;20054;-81
2022/01/05 19:32:28;;;;;;;1.58;0.90;;;6.90;99.90;;;;;;4962697;28;20113;-80
2022/01/05 19:34:54;;;;;;;1.77;1.10;;;6.80;99.90;;;;;;4980684;28;20019;-81
2022/01/05 19:37:47;;;;;;;4.57;1.30;;;6.90;99.90;;;;;;4997150;28;20019;-81
2022/01/05 19:40:26;;;;;;;2.10;1.27;;;6.90;99.90;;;;;;4996260;28;20047;-79
2022/01/05 19:42:54;;;;;;;2.80;1.40;;;6.90;99.90;;;;;;4963967;28;20054;-80
2022/01/05 19:45:21;;;;;;;2.05;1.00;;;6.80;99.90;;;;;;4963985;28;20119;-81
2022/01/05 19:47:47;;;;;;;1.90;0.90;;;6.70;99.90;;;;;;4996946;28;20031;-82
2022/01/05 19:50:18;;;;;;;;;;;6.70;99.90;;;;;;4981249;28;20054;-80
2022/01/05 19:52:50;;;;;;;2.95;1.35;;;6.70;99.90;;;;;;4980516;28;19914;-82
2022/01/05 19:55:28;;;;;;;2.08;1.02;;;6.70;99.90;;;;;;4964759;28;20047;-81